Time;durP1;ratioP1;P1;durP2;ratioP2;P2;SDS_P1;SDS_P2;PMS_P1;PMS_P2;Temp;Humidity;BMP_temperature;BMP_pressure;BME280_temperature;BME280_humidity;BME280_pressure;Samples;Min_cycle;Max_cycle;Signal;HPM_P1;HPM_P2
2021/03/13 00:00:40;;;;;;;19.77;16.30;;;;;;;2.86;74.13;98805.22;1731595;82;21457;-39
2021/03/13 00:03:09;;;;;;;22.70;17.87;;;;;;;2.88;74.14;98796.32;1709771;82;21194;-39
2021/03/13 00:05:39;;;;;;;22.27;18.02;;;;;;;2.86;74.25;98796.63;1716939;82;21012;-40
2021/03/13 00:08:07;;;;;;;;;;;;;;;2.89;74.38;98791.99;1716085;82;21167;-39
2021/03/13 00:10:36;;;;;;;23.45;18.52;;;;;;;2.92;74.28;98800.70;1705312;82;20259;-39
2021/03/13 00:13:06;;;;;;;22.58;17.98;;;;;;;2.82;74.49;98807.76;1719325;82;21472;-39
2021/03/13 00:15:35;;;;;;;20.50;17.32;;;;;;;2.88;74.43;98805.14;1710042;82;21386;-40
2021/03/13 00:18:04;;;;;;;23.22;17.98;;;;;;;2.96;74.27;98798.95;1729475;81;21016;-39
2021/03/13 00:20:34;;;;;;;23.45;18.35;;;;;;;3.02;74.30;98808.93;1707645;81;21199;-39
2021/03/13 00:23:02;;;;;;;22.77;17.75;;;;;;;3.04;74.36;98812.87;1711326;82;21143;-39
2021/03/13 00:25:31;;;;;;;25.50;17.95;;;;;;;2.98;74.45;98806.13;1709605;82;23521;-39
2021/03/13 00:27:59;;;;;;;25.25;19.10;;;;;;;2.91;74.68;98810.39;1714754;82;21157;-39
2021/03/13 00:30:33;;;;;;;23.80;17.05;;;;;;;2.87;74.82;98816.16;1721112;82;21361;-39
2021/03/13 00:33:13;;;;;;;21.93;17.20;;;;;;;2.86;74.93;98811.36;1714157;82;21162;-40
2021/03/13 00:35:42;;;;;;;24.27;18.02;;;;;;;2.86;75.06;98813.25;1733163;82;21171;-40
2021/03/13 00:38:10;;;;;;;25.02;19.23;;;;;;;2.78;75.29;98807.38;1725942;82;21389;-40
2021/03/13 00:40:41;;;;;;;26.10;18.30;;;;;;;2.76;75.46;98809.03;1733172;82;21178;-40
2021/03/13 00:43:10;;;;;;;21.35;16.50;;;;;;;2.76;75.54;98808.27;1722231;81;21406;-39
2021/03/13 00:45:38;;;;;;;23.10;18.07;;;;;;;2.81;75.46;98808.86;1736586;82;21198;-39
2021/03/13 00:48:07;;;;;;;21.95;16.85;;;;;;;2.89;75.28;98814.75;1726501;82;21118;-39
2021/03/13 00:50:37;;;;;;;22.65;17.35;;;;;;;2.94;75.34;98811.11;1742445;82;21253;-40
2021/03/13 00:53:06;;;;;;;24.72;18.40;;;;;;;2.96;75.30;98804.30;1715932;82;21645;-40
2021/03/13 00:55:34;;;;;;;24.35;17.85;;;;;;;2.99;75.29;98812.27;1748296;82;21135;-39
2021/03/13 00:58:03;;;;;;;21.20;17.62;;;;;;;3.02;75.20;98812.39;1726227;82;21162;-39
2021/03/13 01:00:35;;;;;;;19.90;15.65;;;;;;;3.00;75.15;98813.26;1734279;82;21154;-39
2021/03/13 01:03:05;;;;;;;21.00;17.07;;;;;;;2.76;75.12;98783.61;1746420;82;21205;-39
2021/03/13 01:05:33;;;;;;;;;;;;;;;3.02;75.11;98826.34;1749953;82;21028;-40
2021/03/13 01:08:05;;;;;;;22.40;16.95;;;;;;;3.01;75.22;98830.90;1743567;82;20253;-39
2021/03/13 01:10:37;;;;;;;25.50;19.17;;;;;;;2.91;75.42;98833.94;1732012;82;21437;-39
2021/03/13 01:13:06;;;;;;;22.05;16.95;;;;;;;2.88;75.52;98843.17;1728504;82;21625;-39
2021/03/13 01:15:35;;;;;;;23.65;17.48;;;;;;;2.85;75.59;98847.84;1720809;82;22391;-39
2021/03/13 01:18:04;;;;;;;20.88;16.85;;;;;;;2.88;75.60;98844.52;1736830;82;21178;-39
2021/03/13 01:20:34;;;;;;;23.83;18.62;;;;;;;2.93;75.56;98846.46;1743873;82;21600;-40
2021/03/13 01:23:02;;;;;;;23.18;18.48;;;;;;;2.92;75.62;98852.13;1747233;82;21194;-40
2021/03/13 01:25:31;;;;;;;22.80;17.90;;;;;;;2.91;75.67;98850.00;1747517;82;21573;-39
2021/03/13 01:27:59;;;;;;;27.65;19.87;;;;;;;2.91;75.70;98855.91;1746099;82;21366;-39
2021/03/13 01:30:27;;;;;;;25.77;18.27;;;;;;;2.96;75.67;98857.06;1734902;82;21178;-39
2021/03/13 01:32:55;;;;;;;24.07;18.55;;;;;;;3.03;75.65;98865.40;1745143;82;21040;-39
2021/03/13 01:35:25;;;;;;;26.68;19.52;;;;;;;3.06;75.65;98872.23;1748332;82;21163;-39
2021/03/13 01:37:54;;;;;;;26.52;19.70;;;;;;;3.02;75.98;98867.29;1740493;82;21178;-39
2021/03/13 01:40:22;;;;;;;27.58;20.45;;;;;;;3.00;76.14;98871.41;1747443;82;22299;-39
2021/03/13 01:42:51;;;;;;;25.82;19.10;;;;;;;2.95;76.37;98877.70;1726907;82;21617;-40
2021/03/13 01:45:22;;;;;;;;;;;;;;;2.91;76.50;98875.44;1742279;81;21199;-40
2021/03/13 01:47:51;;;;;;;;;;;;;;;2.99;76.47;98884.56;1718917;82;20275;-39
2021/03/13 01:50:20;;;;;;;29.85;21.42;;;;;;;2.90;76.76;98889.95;1714039;82;20496;-40
2021/03/13 01:52:49;;;;;;;27.65;20.45;;;;;;;2.79;77.12;98886.59;1713202;82;21387;-39
2021/03/13 01:55:19;;;;;;;27.20;19.37;;;;;;;2.78;77.31;98891.16;1697359;82;21208;-40
2021/03/13 01:57:49;;;;;;;23.83;16.70;;;;;;;2.77;77.48;98890.13;1732502;82;21029;-39
2021/03/13 02:00:23;;;;;;;23.87;18.95;;;;;;;2.78;77.51;98892.49;1722100;82;21174;-39
2021/03/13 02:02:53;;;;;;;24.75;19.00;;;;;;;2.78;77.58;98901.86;1730551;82;21630;-39
2021/03/13 02:05:27;;;;;;;28.05;20.12;;;;;;;2.75;77.58;98907.86;1686563;82;21233;-40
2021/03/13 02:08:10;;;;;;;29.48;19.27;;;;;;;2.74;77.62;98909.51;1708058;82;21107;-39
2021/03/13 02:11:04;;;;;;;24.45;18.60;;;;;;;2.77;77.52;98910.98;1705549;82;21079;-39
2021/03/13 02:14:00;;;;;;;25.00;18.48;;;;;;;2.82;77.35;98904.13;1717983;82;21190;-40
2021/03/13 02:16:39;;;;;;;24.65;19.35;;;;;;;2.84;77.34;98900.59;1730647;82;21219;-39
2021/03/13 02:19:25;;;;;;;20.77;15.47;;;;;;;2.84;77.27;98900.59;1712881;82;21199;-40
2021/03/13 02:22:04;;;;;;;22.62;17.87;;;;;;;2.86;77.26;98905.05;1710782;81;21186;-39
2021/03/13 02:25:05;;;;;;;17.27;13.50;;;;;;;2.93;77.15;98908.04;1683638;83;21178;-40
2021/03/13 02:27:41;;;;;;;24.63;18.55;;;;;;;3.04;76.79;98899.91;1733692;82;21637;-40
2021/03/13 02:30:15;;;;;;;25.15;19.15;;;;;;;3.11;76.80;98905.29;1695410;82;21170;-40
2021/03/13 02:33:22;;;;;;;27.13;20.15;;;;;;;3.24;76.67;98894.39;1795092;78;22798;-40
2021/03/13 02:36:04;;;;;;;24.70;19.40;;;;;;;3.31;76.41;98897.88;1786660;80;21080;-39
2021/03/13 02:38:50;;;;;;;24.50;19.00;;;;;;;3.39;76.01;98903.75;1777916;80;21457;-39
2021/03/13 02:41:22;;;;;;;25.32;18.67;;;;;;;3.45;75.58;98896.55;1761321;80;21028;-40
2021/03/13 02:44:00;;;;;;;26.62;19.25;;;;;;;3.51;75.26;98887.78;1765537;80;21414;-40
2021/03/13 02:46:30;;;;;;;27.57;20.63;;;;;;;3.53;75.15;98894.16;1764016;80;20996;-39
2021/03/13 02:48:59;;;;;;;26.00;20.55;;;;;;;3.50;75.07;98886.20;1781875;80;21012;-40
2021/03/13 02:51:27;;;;;;;29.70;19.23;;;;;;;3.46;75.04;98884.73;1771501;80;23522;-39
2021/03/13 02:53:56;;;;;;;22.48;17.87;;;;;;;3.45;74.96;98895.77;1753944;80;21094;-39
2021/03/13 02:56:24;;;;;;;25.70;19.17;;;;;;;3.50;74.78;98913.00;1758921;80;20978;-40
2021/03/13 02:58:55;;;;;;;26.50;19.80;;;;;;;3.54;74.71;98916.59;1766515;80;21150;-39
2021/03/13 03:01:27;;;;;;;25.62;18.37;;;;;;;3.54;74.63;98911.23;1781623;80;21146;-39
2021/03/13 03:03:56;;;;;;;29.40;18.92;;;;;;;3.49;74.66;98903.37;1757109;80;21159;-39
2021/03/13 03:06:26;;;;;;;27.70;19.17;;;;;;;3.41;74.78;98901.55;1757217;80;21182;-39
2021/03/13 03:08:54;;;;;;;26.02;18.60;;;;;;;3.39;74.91;98901.86;1756426;81;21146;-39
2021/03/13 03:11:24;;;;;;;28.10;19.50;;;;;;;3.39;74.93;98907.77;1735882;80;21212;-39
2021/03/13 03:13:54;;;;;;;26.65;19.25;;;;;;;3.38;75.02;98909.69;1767971;80;21094;-39
2021/03/13 03:16:22;;;;;;;25.12;18.80;;;;;;;3.34;75.23;98906.64;1765988;80;22207;-39
2021/03/13 03:18:54;;;;;;;28.10;19.25;;;;;;;3.29;75.43;98908.16;1713541;81;21063;-40
2021/03/13 03:21:22;;;;;;;26.65;19.00;;;;;;;3.24;75.57;98924.41;1715769;83;21185;-40
2021/03/13 03:23:51;;;;;;;23.18;16.55;;;;;;;3.25;75.65;98924.06;1725429;82;21735;-40
2021/03/13 03:26:19;;;;;;;23.62;17.45;;;;;;;3.30;75.53;98925.77;1730086;82;21668;-39
2021/03/13 03:28:48;;;;;;;27.45;19.32;;;;;;;3.33;75.49;98923.81;1730907;82;21222;-39
2021/03/13 03:31:17;;;;;;;23.00;16.55;;;;;;;3.33;75.53;98929.96;1704231;82;21238;-40
2021/03/13 03:33:47;;;;;;;25.50;19.00;;;;;;;3.33;75.58;98937.20;1682521;83;21200;-39
2021/03/13 03:36:16;;;;;;;24.45;17.95;;;;;;;3.30;75.67;98940.52;1746437;82;21201;-39
2021/03/13 03:38:45;;;;;;;24.67;17.65;;;;;;;3.32;75.62;98946.34;1655370;86;22124;-39
2021/03/13 03:41:16;;;;;;;25.48;17.52;;;;;;;3.37;75.52;98951.53;1718387;82;21389;-39
2021/03/13 03:43:45;;;;;;;27.90;18.73;;;;;;;3.35;75.57;98949.71;1720059;82;21163;-40
2021/03/13 03:46:15;;;;;;;27.32;18.40;;;;;;;3.27;75.90;98952.67;1723113;82;21461;-40
2021/03/13 03:48:44;;;;;;;26.73;19.50;;;;;;;3.21;76.34;98953.16;1719194;83;21119;-39
2021/03/13 03:51:14;;;;;;;;;;;;;;;3.17;76.54;98946.87;1732133;82;21598;-39
2021/03/13 03:53:49;;;;;;;29.52;18.77;;;;;;;3.19;76.54;98943.33;1732289;82;21203;-39
2021/03/13 03:56:22;;;;;;;29.45;19.25;;;;;;;3.14;76.89;98956.89;1720768;82;21154;-39
2021/03/13 03:58:50;;;;;;;24.98;18.25;;;;;;;3.15;76.96;98951.78;1719988;82;21151;-40
2021/03/13 04:01:19;;;;;;;27.17;18.92;;;;;;;3.13;77.09;98951.30;1733820;82;21751;-40
2021/03/13 04:03:51;;;;;;;25.08;18.45;;;;;;;3.08;77.17;98957.62;1716069;82;21693;-40
2021/03/13 04:06:19;;;;;;;24.82;17.98;;;;;;;3.03;77.31;98967.95;1701986;83;21618;-40
2021/03/13 04:08:50;;;;;;;24.63;17.40;;;;;;;3.06;77.24;98973.99;1732821;82;21219;-40
2021/03/13 04:11:22;;;;;;;26.23;18.48;;;;;;;3.08;77.39;98973.69;1729428;82;21438;-39
2021/03/13 04:13:52;;;;;;;25.43;18.37;;;;;;;3.02;77.43;98978.97;1719427;82;21138;-39
2021/03/13 04:16:20;;;;;;;28.05;18.20;;;;;;;2.96;77.59;98974.88;1700938;83;21191;-40
2021/03/13 04:18:49;;;;;;;21.90;17.10;;;;;;;2.97;77.54;98976.45;1734527;82;22265;-40
2021/03/13 04:21:16;;;;;;;23.40;17.23;;;;;;;2.98;77.53;98975.36;1734132;81;21195;-39
2021/03/13 04:23:47;;;;;;;26.23;19.55;;;;;;;2.99;77.59;98983.63;1746573;82;21763;-40
2021/03/13 04:26:18;;;;;;;27.22;19.17;;;;;;;2.97;77.71;98979.13;1710940;83;21151;-40
2021/03/13 04:28:46;;;;;;;24.43;17.35;;;;;;;2.50;77.72;98904.67;1737182;82;21624;-40
2021/03/13 04:31:19;;;;;;;24.23;17.98;;;;;;;2.92;77.78;98976.08;1699431;82;21308;-39
2021/03/13 04:33:50;;;;;;;26.52;18.07;;;;;;;2.96;77.74;98976.22;1759334;80;21652;-39
2021/03/13 04:36:17;;;;;;;26.70;18.87;;;;;;;2.94;77.78;98979.23;1743470;80;21183;-39
2021/03/13 04:38:46;;;;;;;25.30;18.75;;;;;;;2.91;77.80;98985.20;1744083;80;21186;-39
2021/03/13 04:41:13;;;;;;;23.42;17.20;;;;;;;2.92;77.77;98988.13;1731961;80;21151;-39
2021/03/13 04:43:41;;;;;;;24.32;17.57;;;;;;;2.96;77.62;98994.41;1772962;80;21222;-39
2021/03/13 04:46:09;;;;;;;26.85;18.37;;;;;;;3.00;77.53;98994.00;1757394;80;21167;-39
2021/03/13 04:48:40;;;;;;;25.88;18.20;;;;;;;2.98;77.49;99003.47;1751055;80;21143;-39
2021/03/13 04:51:09;;;;;;;27.20;19.20;;;;;;;2.96;77.56;99006.46;1772701;80;21205;-39
2021/03/13 04:53:37;;;;;;;24.00;17.90;;;;;;;2.95;77.46;99006.22;1748786;80;21616;-40
2021/03/13 04:56:05;;;;;;;21.85;16.90;;;;;;;3.01;77.30;99010.31;1743933;80;21196;-39
2021/03/13 04:58:33;;;;;;;24.67;17.42;;;;;;;3.04;77.11;99011.58;1762431;80;21173;-39
2021/03/13 05:01:01;;;;;;;26.10;19.12;;;;;;;2.98;77.14;99013.64;1747000;80;21163;-39
2021/03/13 05:03:31;;;;;;;22.75;18.30;;;;;;;2.89;77.36;99010.73;1754827;80;21163;-39
2021/03/13 05:05:59;;;;;;;22.77;17.17;;;;;;;2.83;77.42;99014.67;1752729;80;21155;-39
2021/03/13 05:08:27;;;;;;;23.92;17.87;;;;;;;2.88;77.51;99017.19;1765690;80;21435;-39
2021/03/13 05:10:55;;;;;;;24.47;17.60;;;;;;;2.91;77.44;99021.34;1746523;80;21160;-39
2021/03/13 05:13:23;;;;;;;26.27;18.27;;;;;;;2.91;77.48;99025.91;1743478;80;21135;-39
2021/03/13 05:15:51;;;;;;;24.23;18.35;;;;;;;2.90;77.51;99023.02;1744607;80;21036;-39
2021/03/13 05:18:19;;;;;;;24.47;18.15;;;;;;;2.93;77.34;99020.49;1743660;80;21211;-39
2021/03/13 05:20:47;;;;;;;25.35;17.07;;;;;;;3.00;77.25;99020.78;1746558;80;21378;-39
2021/03/13 05:23:15;;;;;;;25.55;19.10;;;;;;;3.07;77.09;99022.98;1746162;80;21187;-39
2021/03/13 05:25:44;;;;;;;27.17;19.40;;;;;;;3.01;77.18;99028.27;1773400;80;21150;-39
2021/03/13 05:28:13;;;;;;;22.73;16.82;;;;;;;2.97;77.24;99034.81;1751953;80;21174;-39
2021/03/13 05:30:41;;;;;;;29.00;18.13;;;;;;;2.89;77.60;99038.84;1771623;80;21593;-39
2021/03/13 05:33:10;;;;;;;26.93;18.62;;;;;;;2.89;77.60;99038.84;1750016;80;21020;-39
2021/03/13 05:35:39;;;;;;;24.18;17.15;;;;;;;2.91;77.41;99038.75;1713493;83;22126;-39
2021/03/13 05:38:07;;;;;;;25.12;16.97;;;;;;;2.89;77.61;99037.51;1776017;80;21609;-40
2021/03/13 05:40:35;;;;;;;20.15;14.73;;;;;;;2.84;77.85;99035.78;1759127;80;21138;-39
2021/03/13 05:43:03;;;;;;;23.57;17.17;;;;;;;2.83;77.96;99034.75;1774620;80;21135;-39
2021/03/13 05:45:33;;;;;;;21.82;16.55;;;;;;;2.88;77.90;99046.09;1746908;80;21204;-39
2021/03/13 05:48:01;;;;;;;20.25;14.60;;;;;;;2.92;77.79;99047.58;1781590;80;21158;-39
2021/03/13 05:50:31;;;;;;;22.87;17.37;;;;;;;2.90;77.80;99043.89;1781607;80;21149;-39
2021/03/13 05:52:58;;;;;;;19.45;15.00;;;;;;;2.90;77.80;99053.27;1752847;80;21644;-39
2021/03/13 05:55:27;;;;;;;18.82;13.93;;;;;;;2.89;77.86;99046.88;1749895;80;21322;-39
2021/03/13 05:57:55;;;;;;;22.30;15.75;;;;;;;2.96;77.70;99054.66;1707781;82;21508;-39
2021/03/13 06:00:23;;;;;;;20.80;15.70;;;;;;;3.02;77.64;99057.96;1765306;80;21158;-40
2021/03/13 06:02:52;;;;;;;22.90;16.40;;;;;;;3.04;77.67;99065.14;1751502;80;21199;-40
2021/03/13 06:05:20;;;;;;;21.17;15.95;;;;;;;3.11;77.71;99065.44;1773065;80;21433;-40
2021/03/13 06:07:48;;;;;;;18.25;14.15;;;;;;;3.21;77.42;99065.66;1770640;80;21382;-39
2021/03/13 06:10:16;;;;;;;19.27;15.18;;;;;;;3.34;77.12;99070.06;1761079;80;21317;-40
2021/03/13 06:12:44;;;;;;;17.27;13.38;;;;;;;3.43;76.75;99075.64;1776589;80;21201;-39
2021/03/13 06:15:14;;;;;;;24.30;16.77;;;;;;;3.12;76.47;99024.16;1714692;83;21640;-39
2021/03/13 06:17:59;;;;;;;20.90;16.23;;;;;;;3.44;76.57;99073.72;1750949;82;21179;-40
2021/03/13 06:20:36;;;;;;;19.70;14.50;;;;;;;3.50;76.51;99075.13;1762508;80;21162;-40
2021/03/13 06:23:14;;;;;;;23.45;16.73;;;;;;;3.59;76.22;99086.61;1781573;80;22250;-40
2021/03/13 06:25:45;;;;;;;29.92;18.37;;;;;;;3.70;75.95;99083.83;1772620;80;21012;-40
2021/03/13 06:28:19;;;;;;;26.30;18.15;;;;;;;3.79;75.75;99085.92;1763882;80;21605;-40
2021/03/13 06:30:50;;;;;;;23.42;17.05;;;;;;;3.81;75.63;99079.70;1760888;80;21177;-40
2021/03/13 06:33:24;;;;;;;23.90;17.57;;;;;;;3.85;75.51;99079.28;1750705;80;21190;-40
2021/03/13 06:35:55;;;;;;;25.37;18.00;;;;;;;3.93;75.45;99082.48;1743052;80;22407;-40
2021/03/13 06:38:25;;;;;;;22.67;17.23;;;;;;;4.07;74.96;99090.30;1748560;81;21012;-40
2021/03/13 06:40:58;;;;;;;26.85;19.00;;;;;;;4.16;74.49;99083.02;1759762;81;21602;-40
2021/03/13 06:43:31;;;;;;;23.75;16.80;;;;;;;4.22;74.21;99089.76;1742756;82;21158;-40
2021/03/13 06:46:06;;;;;;;25.55;18.30;;;;;;;4.27;74.08;99094.15;1748242;80;21163;-40
2021/03/13 06:48:53;;;;;;;25.75;18.17;;;;;;;4.30;73.90;99086.81;1747505;80;21200;-39
2021/03/13 06:51:31;;;;;;;24.47;18.77;;;;;;;4.37;73.81;99088.41;1756794;80;21590;-39
2021/03/13 06:54:15;;;;;;;26.12;18.73;;;;;;;4.51;73.44;99082.25;1731772;82;21624;-40
2021/03/13 06:57:00;;;;;;;27.80;18.80;;;;;;;4.64;72.95;99087.16;1761196;80;21159;-39
2021/03/13 07:02:07;;;;;;;28.80;20.30;;;;;;;4.76;72.40;99091.23;1830208;78;22719;-39
2021/03/13 07:04:40;;;;;;;28.73;19.73;;;;;;;4.69;72.14;99101.18;1791355;79;21033;-39
2021/03/13 07:07:09;;;;;;;26.02;19.10;;;;;;;4.70;72.05;99100.59;1785771;78;21386;-39
2021/03/13 07:09:48;;;;;;;28.02;19.45;;;;;;;4.72;72.04;99091.12;1802156;78;21028;-42
2021/03/13 07:12:40;;;;;;;;;;;;;;;4.80;71.97;99087.57;1754699;80;21625;-42
2021/03/13 07:15:25;;;;;;;21.33;16.23;;;;;;;4.98;71.39;99094.95;1756588;80;20133;-42
2021/03/13 07:17:58;;;;;;;23.90;18.62;;;;;;;4.98;71.34;99090.93;1739119;82;21612;-42
2021/03/13 07:20:31;;;;;;;24.05;18.25;;;;;;;5.05;71.14;99093.86;1746045;82;21354;-42
2021/03/13 07:23:04;;;;;;;22.93;17.00;;;;;;;5.13;70.83;99091.64;1731833;82;21028;-42
2021/03/13 07:25:32;;;;;;;23.00;17.65;;;;;;;5.16;70.66;99096.94;1766990;80;20996;-42
2021/03/13 07:28:02;;;;;;;21.70;16.80;;;;;;;5.21;70.40;99094.05;1723340;82;21143;-41
2021/03/13 07:30:32;;;;;;;21.93;17.73;;;;;;;5.29;70.23;99099.09;1726689;82;21093;-42
2021/03/13 07:33:05;;;;;;;22.40;17.35;;;;;;;5.38;70.05;99096.56;1743378;80;21390;-40
2021/03/13 07:35:40;;;;;;;23.22;18.77;;;;;;;5.46;69.79;99094.92;1726669;80;21183;-40
2021/03/13 07:38:14;;;;;;;27.13;19.73;;;;;;;5.52;69.80;99091.67;1763006;80;21190;-40
2021/03/13 07:40:46;;;;;;;23.27;18.35;;;;;;;5.58;69.69;99097.07;1762376;80;21131;-40
2021/03/13 07:43:16;;;;;;;21.17;17.57;;;;;;;5.60;69.34;99100.23;1772528;80;21307;-40
2021/03/13 07:45:47;;;;;;;20.10;16.45;;;;;;;5.64;69.04;99099.78;1765535;80;21369;-40
2021/03/13 07:48:16;;;;;;;20.48;15.93;;;;;;;5.72;68.91;99096.76;1744470;81;21515;-40
2021/03/13 07:50:49;;;;;;;23.60;17.27;;;;;;;5.87;68.73;99095.36;1726542;80;21199;-40
2021/03/13 07:53:17;;;;;;;22.95;17.90;;;;;;;5.97;68.22;99097.61;1775721;79;21166;-40
2021/03/13 07:55:52;;;;;;;24.85;18.70;;;;;;;6.02;68.10;99089.33;1742826;82;21127;-40
2021/03/13 07:58:21;;;;;;;22.27;17.35;;;;;;;6.14;67.76;99095.28;1742762;82;22073;-40
2021/03/13 08:00:49;;;;;;;21.42;16.55;;;;;;;6.27;67.36;99107.06;1757575;79;21156;-40
2021/03/13 08:03:37;;;;;;;19.48;15.90;;;;;;;6.40;66.76;99098.41;1744339;81;21479;-40
2021/03/13 08:06:11;;;;;;;20.20;16.45;;;;;;;6.52;66.15;99095.16;1735329;82;21170;-40
2021/03/13 08:08:45;;;;;;;20.85;16.90;;;;;;;6.64;65.93;99095.69;1738128;81;21175;-40
2021/03/13 08:11:18;;;;;;;23.25;17.67;;;;;;;6.77;65.33;99101.85;1793613;79;21593;-40
2021/03/13 08:13:50;;;;;;;20.12;16.93;;;;;;;6.86;64.95;99101.16;1736744;80;21216;-41
2021/03/13 08:16:42;;;;;;;19.02;16.12;;;;;;;6.92;64.80;99095.76;1733058;81;21000;-40
2021/03/13 08:19:38;;;;;;;19.75;17.02;;;;;;;7.06;64.48;99089.98;1720955;82;21202;-40
2021/03/13 08:22:17;;;;;;;20.50;16.07;;;;;;;7.19;63.92;99093.63;1669812;84;21785;-40
2021/03/13 08:24:51;;;;;;;19.42;15.35;;;;;;;7.27;63.40;99096.73;1708127;80;21391;-40
2021/03/13 08:27:41;;;;;;;22.35;16.37;;;;;;;7.00;63.57;99047.66;1758582;80;21113;-40
2021/03/13 08:30:19;;;;;;;19.50;16.05;;;;;;;7.38;63.35;99099.17;1731335;81;21187;-40
2021/03/13 08:33:06;;;;;;;18.60;14.95;;;;;;;7.55;62.81;99097.30;1757823;80;21609;-40
2021/03/13 08:35:45;;;;;;;19.62;16.10;;;;;;;7.69;61.99;99100.38;1775037;80;21190;-40
2021/03/13 08:38:17;;;;;;;18.10;14.40;;;;;;;7.80;61.60;99101.41;1789386;78;22663;-40
2021/03/13 08:40:48;;;;;;;19.20;15.00;;;;;;;7.91;61.48;99101.12;1793934;79;21040;-40
2021/03/13 08:43:38;;;;;;;18.12;14.45;;;;;;;8.10;61.33;99102.56;1784641;79;21186;-40
2021/03/13 08:46:31;;;;;;;19.82;15.72;;;;;;;8.30;60.71;99104.80;1775990;79;21641;-40
2021/03/13 08:48:59;;;;;;;18.12;15.10;;;;;;;8.51;59.72;99106.66;1791390;79;21582;-40
2021/03/13 08:51:27;;;;;;;17.37;14.80;;;;;;;8.63;58.56;99100.34;1790967;79;21355;-40
2021/03/13 08:53:56;;;;;;;19.15;15.03;;;;;;;8.63;58.36;99103.04;1765922;79;21190;-38
2021/03/13 08:56:47;;;;;;;19.70;14.98;;;;;;;8.65;58.38;99105.62;1781556;79;21582;-39
2021/03/13 08:59:19;;;;;;;18.07;15.30;;;;;;;8.68;58.41;99100.86;1775205;79;21115;-39
2021/03/13 09:02:05;;;;;;;19.35;15.43;;;;;;;8.73;58.08;99094.39;1778669;79;21146;-39
2021/03/13 09:04:35;;;;;;;19.92;15.43;;;;;;;8.76;57.87;99092.91;1736061;82;21373;-39
2021/03/13 09:07:07;;;;;;;20.77;16.02;;;;;;;8.75;57.88;99099.45;1761159;81;22407;-39
2021/03/13 09:09:38;;;;;;;19.37;16.55;;;;;;;8.80;57.53;99086.45;1737690;82;21000;-39
2021/03/13 09:12:16;;;;;;;20.40;15.63;;;;;;;8.84;57.23;99092.70;1730712;81;21032;-39
2021/03/13 09:14:48;;;;;;;17.80;14.95;;;;;;;8.91;56.97;99090.14;1754843;81;21194;-39
2021/03/13 09:17:19;;;;;;;19.00;15.38;;;;;;;8.97;56.81;99094.13;1730616;80;22731;-39
2021/03/13 09:19:48;;;;;;;18.52;14.63;;;;;;;9.10;56.69;99094.80;1803887;79;21131;-39
2021/03/13 09:22:23;;;;;;;16.57;14.50;;;;;;;9.25;56.67;99098.54;1722955;82;21179;-39
2021/03/13 09:25:13;;;;;;;17.98;14.20;;;;;;;9.41;55.71;99101.96;1768211;81;21139;-39
2021/03/13 09:27:41;;;;;;;15.75;13.65;;;;;;;9.48;55.69;99098.05;1740800;81;26558;-39
2021/03/13 09:30:16;;;;;;;16.60;13.35;;;;;;;9.53;55.74;99095.84;1754054;81;21211;-39
2021/03/13 09:32:47;;;;;;;14.30;11.70;;;;;;;9.68;55.57;99086.05;1753160;80;21167;-39
2021/03/13 09:35:19;;;;;;;16.85;13.48;;;;;;;9.79;54.64;99087.00;1737714;82;21180;-39
2021/03/13 09:37:46;;;;;;;16.80;13.75;;;;;;;9.83;54.95;99089.20;1738924;81;21167;-39
2021/03/13 09:40:17;;;;;;;17.17;14.05;;;;;;;9.93;54.31;99088.59;1707237;82;21398;-39
2021/03/13 09:42:46;;;;;;;16.60;13.30;;;;;;;9.95;54.21;99087.68;1723274;82;21432;-39
2021/03/13 09:45:21;;;;;;;16.82;14.05;;;;;;;10.00;54.11;99090.66;1739057;82;21565;-39
2021/03/13 09:47:58;;;;;;;14.65;12.78;;;;;;;10.10;53.90;99085.98;1729141;82;21692;-39
2021/03/13 09:50:35;;;;;;;16.35;12.55;;;;;;;10.18;53.39;99090.97;1727793;82;21155;-39
2021/03/13 09:53:06;;;;;;;16.07;13.22;;;;;;;10.23;53.58;99089.30;1739067;80;21182;-39
2021/03/13 09:58:17;;;;;;;15.80;13.08;;;;;;;10.38;52.80;99093.80;1844853;76;23325;-38
2021/03/13 10:00:45;;;;;;;16.52;13.72;;;;;;;10.37;53.00;99090.30;1809963;77;21174;-38
2021/03/13 10:03:15;;;;;;;17.80;13.35;;;;;;;10.42;52.73;99091.35;1795830;79;22091;-38
2021/03/13 10:05:56;;;;;;;15.85;12.45;;;;;;;10.51;52.90;99091.66;1786545;79;21035;-39
2021/03/13 10:08:34;;;;;;;15.15;12.50;;;;;;;10.61;52.92;99091.03;1791926;79;20996;-39
2021/03/13 10:11:04;;;;;;;14.98;12.25;;;;;;;10.70;52.34;99089.61;1795121;79;21549;-39
2021/03/13 10:13:33;;;;;;;14.25;12.23;;;;;;;10.79;51.70;99082.02;1804987;79;21035;-39
2021/03/13 10:16:01;;;;;;;16.30;12.55;;;;;;;10.89;51.70;99080.00;1803906;79;22213;-39
2021/03/13 10:18:38;;;;;;;13.13;11.20;;;;;;;11.00;51.70;99080.70;1786543;79;21044;-39
2021/03/13 10:21:07;;;;;;;12.75;11.25;;;;;;;11.11;51.01;99087.05;1785747;79;21619;-39
2021/03/13 10:23:37;;;;;;;13.72;10.53;;;;;;;11.21;50.44;99085.05;1793519;79;21429;-39
2021/03/13 10:26:09;;;;;;;11.95;9.98;;;;;;;11.29;49.76;99088.05;1803291;79;21147;-39
2021/03/13 10:28:46;;;;;;;12.78;9.88;;;;;;;11.31;49.82;99065.40;1804397;79;21380;-39
2021/03/13 10:31:19;;;;;;;10.63;9.33;;;;;;;11.63;49.11;99080.66;1801377;78;21146;-38
2021/03/13 10:33:50;;;;;;;10.80;8.73;;;;;;;11.77;48.19;99078.10;1788079;79;21159;-39
2021/03/13 10:36:20;;;;;;;10.43;9.05;;;;;;;11.81;48.08;99077.58;1815862;79;21166;-38
2021/03/13 10:38:50;;;;;;;12.10;10.00;;;;;;;11.88;48.15;99079.56;1816013;79;21608;-39
2021/03/13 10:41:23;;;;;;;19.30;13.58;;;;;;;11.92;48.03;99079.80;1810800;77;21364;-39
2021/03/13 10:43:53;;;;;;;17.60;14.00;;;;;;;11.92;48.17;99077.08;1802496;79;21106;-39
2021/03/13 10:46:23;;;;;;;13.50;10.55;;;;;;;11.92;48.78;99069.50;1787193;79;21071;-39
2021/03/13 10:49:01;;;;;;;11.73;10.23;;;;;;;12.01;48.72;99076.76;1789941;79;21154;-39
2021/03/13 10:51:42;;;;;;;11.10;9.55;;;;;;;12.10;48.06;99078.61;1815932;79;21146;-39
2021/03/13 10:54:28;;;;;;;13.00;10.50;;;;;;;12.11;48.00;99077.42;1810384;79;21162;-39
2021/03/13 10:56:57;;;;;;;13.35;10.45;;;;;;;12.17;48.20;99070.50;1793294;79;21150;-39
2021/03/13 10:59:35;;;;;;;11.88;10.48;;;;;;;12.33;48.51;99072.95;1807980;79;21151;-39
2021/03/13 11:02:03;;;;;;;12.50;10.10;;;;;;;12.55;47.95;99074.64;1815261;79;21372;-39
2021/03/13 11:04:31;;;;;;;12.55;10.32;;;;;;;12.84;45.99;99072.86;1810910;79;21578;-39
2021/03/13 11:06:59;;;;;;;12.58;10.80;;;;;;;12.95;46.06;99069.63;1813342;78;21197;-39
2021/03/13 11:09:29;;;;;;;8.93;7.40;;;;;;;13.07;45.73;99075.50;1745977;80;21144;-39
2021/03/13 11:11:58;;;;;;;;;;;;;;;13.11;45.05;99068.76;1816377;79;21059;-39
2021/03/13 11:14:27;;;;;;;11.45;9.60;;;;;;;13.18;45.33;99066.62;1788977;79;20285;-39
2021/03/13 11:16:55;;;;;;;10.63;8.73;;;;;;;13.24;45.07;99064.52;1783397;79;21356;-39
2021/03/13 11:19:25;;;;;;;13.35;9.75;;;;;;;13.41;44.39;99059.70;1790449;79;21251;-39
2021/03/13 11:21:54;;;;;;;10.65;9.55;;;;;;;13.61;43.91;99059.34;1808667;79;20996;-39
2021/03/13 11:24:23;;;;;;;11.78;9.85;;;;;;;13.66;43.94;99052.16;1754095;81;21141;-39
2021/03/13 11:26:52;;;;;;;12.40;10.20;;;;;;;13.65;43.67;99056.07;1759551;80;21080;-39
2021/03/13 11:29:20;;;;;;;13.43;10.60;;;;;;;13.61;43.84;99051.17;1718564;82;21192;-39
2021/03/13 11:31:49;;;;;;;12.00;8.83;;;;;;;13.70;44.02;99054.33;1796831;79;21244;-39
2021/03/13 11:34:17;;;;;;;11.40;9.10;;;;;;;13.78;43.40;99047.72;1801336;79;21687;-39
2021/03/13 11:36:45;;;;;;;10.90;8.83;;;;;;;13.75;43.45;99043.02;1801574;79;21027;-38
2021/03/13 11:39:13;;;;;;;10.20;8.75;;;;;;;13.70;43.44;99045.55;1746072;82;21640;-39
2021/03/13 11:41:42;;;;;;;9.30;7.95;;;;;;;13.75;43.72;99033.48;1751445;80;21155;-39
2021/03/13 11:44:11;;;;;;;12.20;9.43;;;;;;;13.86;43.11;99026.89;1777611;80;22150;-38
2021/03/13 11:46:39;;;;;;;10.95;8.30;;;;;;;13.85;43.73;99036.22;1777040;79;21175;-39
2021/03/13 11:49:07;;;;;;;10.68;8.93;;;;;;;13.86;43.46;99032.92;1772345;79;21618;-39
2021/03/13 11:51:35;;;;;;;10.00;8.33;;;;;;;13.97;42.36;99030.98;1746892;80;21184;-39
2021/03/13 11:54:03;;;;;;;9.03;7.65;;;;;;;14.11;42.53;99030.97;1761155;81;21380;-39